createdAt,value
2022-09-12T00:03:24.036Z,11.10
2022-09-12T00:08:28.302Z,10.97
2022-09-12T00:13:31.861Z,10.93
2022-09-12T00:18:37.490Z,10.92
2022-09-12T00:23:40.893Z,10.90
2022-09-12T00:28:45.159Z,10.95
2022-09-12T00:33:50.017Z,10.98
2022-09-12T00:38:55.352Z,10.98
2022-09-12T00:44:00.140Z,10.97
2022-09-12T00:49:08.425Z,10.92
2022-09-12T00:54:16.601Z,10.86
2022-09-12T00:59:24.529Z,10.86
2022-09-12T01:04:30.386Z,10.87
2022-09-12T01:09:34.982Z,10.70
2022-09-12T01:14:39.814Z,10.55
2022-09-12T01:19:56.872Z,10.47
2022-09-12T01:25:12.698Z,10.44
2022-09-12T01:30:46.199Z,10.38
2022-09-12T01:36:03.240Z,10.30
2022-09-12T01:41:19.725Z,10.20
2022-09-12T01:46:32.808Z,10.14
2022-09-12T01:51:40.026Z,10.07
2022-09-12T01:56:47.910Z,10.15
2022-09-12T02:01:59.992Z,10.07
2022-09-12T02:07:08.238Z,10.08
2022-09-12T02:12:16.135Z,10.12
2022-09-12T02:17:24.726Z,10.18
2022-09-12T02:22:30.648Z,10.23
2022-09-12T02:27:38.347Z,10.35
2022-09-12T02:32:52.254Z,10.39
2022-09-12T02:38:04.167Z,10.44
2022-09-12T02:43:08.376Z,10.33
2022-09-12T02:48:19.551Z,10.37
2022-09-12T02:53:24.310Z,10.42
2022-09-12T02:58:28.762Z,10.48
2022-09-12T03:04:03.050Z,10.42
2022-09-12T03:09:14.078Z,10.31
2022-09-12T03:14:28.085Z,10.35
2022-09-12T03:19:44.079Z,10.36
2022-09-12T03:24:54.452Z,10.36
2022-09-12T03:29:59.414Z,10.40
2022-09-12T03:35:05.547Z,10.39
2022-09-12T03:40:12.713Z,10.26
2022-09-12T03:45:16.729Z,10.32
2022-09-12T03:50:22.721Z,10.41
2022-09-12T03:55:27.628Z,10.48
2022-09-12T04:00:31.803Z,10.40
2022-09-12T04:05:38.929Z,10.21
2022-09-12T04:10:43.870Z,10.16
2022-09-12T04:15:58.815Z,10.29
2022-09-12T04:21:07.795Z,10.27
2022-09-12T04:26:14.480Z,10.33
2022-09-12T04:31:21.596Z,10.42
2022-09-12T04:36:28.392Z,10.40
2022-09-12T04:41:38.126Z,10.49
2022-09-12T04:46:45.420Z,10.50
2022-09-12T04:51:51.140Z,10.54
2022-09-12T04:56:56.051Z,10.50
2022-09-12T05:01:59.886Z,10.63
2022-09-12T05:07:05.901Z,10.61
2022-09-12T05:12:10.243Z,10.70
2022-09-12T05:17:14.433Z,10.91
2022-09-12T05:22:19.288Z,11.11
2022-09-12T05:27:23.143Z,11.09
2022-09-12T05:32:26.583Z,11.15
2022-09-12T05:37:32.090Z,11.07
2022-09-12T05:42:35.765Z,11.00
2022-09-12T05:47:40.171Z,11.16
2022-09-12T05:52:44.944Z,11.19
2022-09-12T05:57:49.128Z,11.39
2022-09-12T06:08:39.675Z,11.92
2022-09-12T06:13:44.565Z,11.88
2022-09-12T06:18:49.824Z,11.68
2022-09-12T06:23:55.500Z,11.65
2022-09-12T06:29:02.534Z,11.75
2022-09-12T06:34:07.766Z,11.81
2022-09-12T06:39:14.558Z,12.29
2022-09-12T06:44:19.600Z,12.47
2022-09-12T06:49:22.992Z,12.92
2022-09-12T06:54:27.696Z,13.67
2022-09-12T06:59:31.458Z,14.27
2022-09-12T07:04:36.785Z,14.69
2022-09-12T07:09:42.334Z,15.07
2022-09-12T07:14:45.751Z,14.94
2022-09-12T07:19:53.966Z,14.52
2022-09-12T07:25:00.296Z,14.51
2022-09-12T07:30:05.092Z,14.56
2022-09-12T07:35:09.204Z,15.02
2022-09-12T07:40:15.899Z,15.05
2022-09-12T07:45:19.220Z,15.30
2022-09-12T07:50:23.894Z,16.29
2022-09-12T07:55:29.181Z,16.08
2022-09-12T08:00:36.692Z,15.62
2022-09-12T08:05:40.138Z,15.45
2022-09-12T08:10:45.525Z,15.58
2022-09-12T08:15:49.920Z,15.62
2022-09-12T08:20:59.202Z,15.63
2022-09-12T08:26:06.623Z,15.23
2022-09-12T08:31:13.901Z,15.03
2022-09-12T08:36:20.473Z,14.43
2022-09-12T08:41:31.184Z,14.75
2022-09-12T08:46:41.874Z,14.60
2022-09-12T08:51:46.314Z,14.40
2022-09-12T08:56:51.850Z,14.01
2022-09-12T09:02:02.213Z,13.90
2022-09-12T09:07:19.703Z,13.88
2022-09-12T09:12:33.342Z,14.00
2022-09-12T09:17:42.011Z,14.14
2022-09-12T09:22:50.664Z,14.23
2022-09-12T09:28:03.955Z,14.21
2022-09-12T09:33:12.512Z,14.75
2022-09-12T09:38:26.335Z,15.01
2022-09-12T09:43:31.528Z,15.22
2022-09-12T09:48:38.805Z,14.57
2022-09-12T09:53:46.841Z,14.90
2022-09-12T09:58:52.424Z,15.30
2022-09-12T10:03:57.457Z,15.26
2022-09-12T10:09:22.904Z,15.22
2022-09-12T10:14:37.216Z,15.44
2022-09-12T10:19:42.021Z,15.39
2022-09-12T10:24:52.421Z,15.36
2022-09-12T10:30:04.141Z,15.68
2022-09-12T10:35:17.866Z,15.60
2022-09-12T10:40:27.261Z,15.83
2022-09-12T10:45:34.058Z,15.76
2022-09-12T10:50:42.788Z,15.69
2022-09-12T10:56:04.949Z,15.96
2022-09-12T11:01:18.912Z,15.97
2022-09-12T11:06:28.894Z,16.01
2022-09-12T11:11:52.209Z,16.14
2022-09-12T11:17:13.351Z,16.48
2022-09-12T11:22:32.038Z,16.35
2022-09-12T11:27:51.027Z,16.55
2022-09-12T11:33:07.926Z,16.18
2022-09-12T11:38:52.987Z,16.29
2022-09-12T11:44:03.757Z,15.56
2022-09-12T11:49:22.648Z,16.22
2022-09-12T11:54:31.791Z,16.38
2022-09-12T11:59:46.225Z,16.30
2022-09-12T12:05:03.334Z,15.84
2022-09-12T12:10:10.159Z,16.04
2022-09-12T12:15:16.052Z,16.18
2022-09-12T12:20:22.183Z,15.80
2022-09-12T12:25:40.629Z,15.82
2022-09-12T12:31:07.004Z,16.41
2022-09-12T12:36:31.563Z,16.37
2022-09-12T12:41:46.967Z,15.78
2022-09-12T12:47:19.097Z,15.77
2022-09-12T12:52:24.688Z,15.58
2022-09-12T12:57:33.081Z,15.13
2022-09-12T13:02:41.524Z,15.27
2022-09-12T13:07:48.981Z,15.01
2022-09-12T13:12:53.390Z,14.85
2022-09-12T13:18:03.526Z,14.94
2022-09-12T13:23:23.744Z,14.74
2022-09-12T13:28:28.904Z,14.53
2022-09-12T13:33:37.891Z,14.25
2022-09-12T13:38:54.599Z,13.99
2022-09-12T13:43:58.363Z,14.08
2022-09-12T13:49:08.519Z,14.23
2022-09-12T13:54:23.938Z,14.30
2022-09-12T13:59:28.765Z,14.29
2022-09-12T14:04:49.553Z,14.43
2022-09-12T14:09:58.884Z,14.33
2022-09-12T14:15:02.980Z,14.62
2022-09-12T14:20:14.578Z,14.77
2022-09-12T14:25:22.675Z,14.82
2022-09-12T14:30:29.570Z,14.50
2022-09-12T14:35:34.553Z,14.53
2022-09-12T14:40:46.179Z,14.41
2022-09-12T14:45:57.761Z,14.42
2022-09-12T14:51:02.674Z,14.41
2022-09-12T14:56:15.219Z,14.23
2022-09-12T15:01:29.342Z,14.27
2022-09-12T15:06:36.866Z,13.81
2022-09-12T15:11:43.008Z,13.81
2022-09-12T15:16:47.272Z,13.59
2022-09-12T15:21:51.574Z,13.58
2022-09-12T15:26:57.638Z,13.41
2022-09-12T15:32:02.151Z,13.29
2022-09-12T15:37:11.939Z,13.44
2022-09-12T15:42:19.614Z,13.31
2022-09-12T15:47:23.972Z,13.22
2022-09-12T15:52:27.636Z,13.18
2022-09-12T15:57:33.666Z,13.13
2022-09-12T16:02:37.316Z,13.07
2022-09-12T16:07:41.319Z,13.07
2022-09-12T16:12:47.473Z,13.02
2022-09-12T16:17:52.957Z,12.93
2022-09-12T16:22:56.649Z,12.81
2022-09-12T16:28:03.260Z,12.68
2022-09-12T16:33:07.559Z,12.48
2022-09-12T16:38:12.667Z,12.37
2022-09-12T16:43:18.120Z,12.12
2022-09-12T16:48:22.587Z,12.03
2022-09-12T16:53:26.625Z,11.92
2022-09-12T16:58:37.472Z,11.85
2022-09-12T17:03:44.917Z,11.55
2022-09-12T17:08:51.500Z,11.50
2022-09-12T17:14:06.686Z,11.40
2022-09-12T17:19:17.347Z,11.34
2022-09-12T17:24:22.057Z,11.23
2022-09-12T17:29:28.666Z,11.22
2022-09-12T17:34:32.621Z,11.09
2022-09-12T17:39:37.346Z,10.97
2022-09-12T17:44:42.421Z,10.85
2022-09-12T17:49:47.559Z,10.79
2022-09-12T17:54:51.265Z,10.77
2022-09-12T17:59:57.206Z,10.65
2022-09-12T18:05:00.912Z,10.56
2022-09-12T18:10:05.459Z,10.50
2022-09-12T18:15:13.541Z,10.46
2022-09-12T18:20:18.235Z,10.42
2022-09-12T18:25:23.807Z,10.48
2022-09-12T18:30:31.858Z,10.58
2022-09-12T18:35:36.041Z,10.65
2022-09-12T18:40:40.218Z,10.76
2022-09-12T18:45:46.376Z,10.84
2022-09-12T18:50:50.049Z,10.96
2022-09-12T18:55:54.169Z,11.01
2022-09-12T19:01:00.227Z,11.08
2022-09-12T19:06:08.513Z,11.09
2022-09-12T19:11:13.183Z,11.20
2022-09-12T19:16:21.344Z,11.38
2022-09-12T19:21:28.398Z,11.33
2022-09-12T19:26:33.112Z,11.51
2022-09-12T19:31:38.682Z,11.61
2022-09-12T19:36:45.867Z,11.62
2022-09-12T19:41:50.346Z,11.68
2022-09-12T19:46:55.855Z,11.64
2022-09-12T19:51:59.976Z,11.66
2022-09-12T19:57:04.286Z,11.55
2022-09-12T20:02:09.922Z,11.61
2022-09-12T20:07:13.308Z,11.60
2022-09-12T20:12:17.457Z,11.46
2022-09-12T20:17:22.941Z,11.51
2022-09-12T20:22:26.285Z,11.40
2022-09-12T20:27:30.564Z,11.33
2022-09-12T20:32:35.357Z,11.29
2022-09-12T20:37:40.846Z,11.20
2022-09-12T20:42:44.213Z,11.20
2022-09-12T20:47:49.672Z,11.13
2022-09-12T20:52:53.039Z,11.07
2022-09-12T20:57:57.119Z,11.05
2022-09-12T21:03:02.132Z,10.94
2022-09-12T21:08:06.985Z,10.92
2022-09-12T21:13:11.029Z,10.82
2022-09-12T21:18:16.656Z,10.73
2022-09-12T21:23:20.033Z,10.72
2022-09-12T21:28:24.888Z,10.70
2022-09-12T21:33:29.522Z,10.65
2022-09-12T21:38:34.245Z,10.62
2022-09-12T21:43:38.571Z,10.65
2022-09-12T21:48:44.759Z,10.67
2022-09-12T21:53:48.232Z,10.70
2022-09-12T21:58:52.376Z,10.69
2022-09-12T22:03:57.144Z,10.59
2022-09-12T22:09:01.180Z,10.64
2022-09-12T22:14:04.809Z,10.68
2022-09-12T22:19:10.436Z,10.69
2022-09-12T22:24:28.869Z,10.73
2022-09-12T22:29:33.146Z,10.58
2022-09-12T22:34:37.876Z,10.67
2022-09-12T22:39:42.325Z,10.73
2022-09-12T22:44:45.694Z,10.63
2022-09-12T22:49:51.251Z,10.56
2022-09-12T22:54:54.566Z,10.58
2022-09-12T22:59:58.634Z,10.58
2022-09-12T23:05:03.353Z,10.61
2022-09-12T23:10:08.666Z,10.50
2022-09-12T23:15:12.554Z,10.42
2022-09-12T23:20:18.249Z,10.36
2022-09-12T23:25:23.667Z,10.20
2022-09-12T23:30:27.856Z,10.27
2022-09-12T23:35:33.325Z,10.21
2022-09-12T23:40:37.365Z,10.19
2022-09-12T23:45:41.580Z,10.15
2022-09-12T23:50:48.476Z,10.20
2022-09-12T23:55:52.707Z,10.01
